createdAt,value
2023-02-12T00:01:22.619Z,4.45
2023-02-12T00:03:50.149Z,4.80
2023-02-12T00:06:17.017Z,5.20
2023-02-12T00:08:44.158Z,5.20
2023-02-12T00:11:20.503Z,4.97
2023-02-12T00:13:47.706Z,5.10
2023-02-12T00:16:22.755Z,5.63
2023-02-12T00:21:20.530Z,5.35
2023-02-12T00:23:47.345Z,5.70
2023-02-12T00:26:18.308Z,5.35
2023-02-12T00:28:45.339Z,5.60
2023-02-12T00:31:16.952Z,5.82
2023-02-12T00:33:43.900Z,5.38
2023-02-12T00:36:16.849Z,5.90
2023-02-12T00:38:43.905Z,5.28
2023-02-12T00:41:11.874Z,5.15
2023-02-12T00:43:38.939Z,7.07
2023-02-12T00:46:07.235Z,7.97
2023-02-12T00:48:35.181Z,9.52
2023-02-12T00:51:02.927Z,9.10
2023-02-12T00:53:31.602Z,10.20
2023-02-12T00:55:59.386Z,17.63
2023-02-12T00:58:26.362Z,14.85
2023-02-12T01:00:54.354Z,16.85
2023-02-12T01:03:21.737Z,16.35
2023-02-12T01:05:48.841Z,15.30
2023-02-12T01:08:17.333Z,13.07
2023-02-12T01:10:45.125Z,10.32
2023-02-12T01:13:15.697Z,10.93
2023-02-12T01:15:43.127Z,9.57
2023-02-12T01:18:10.052Z,9.02
2023-02-12T01:20:37.042Z,7.18
2023-02-12T01:23:07.041Z,7.72
2023-02-12T01:25:34.196Z,6.13
2023-02-12T01:28:01.065Z,6.40
2023-02-12T01:30:27.881Z,6.15
2023-02-12T01:32:55.700Z,6.20
2023-02-12T01:35:22.520Z,5.82
2023-02-12T01:37:49.303Z,6.63
2023-02-12T01:40:18.224Z,6.60
2023-02-12T01:42:45.040Z,6.25
2023-02-12T01:45:14.829Z,6.20
2023-02-12T01:47:45.704Z,6.00
2023-02-12T01:50:18.094Z,5.15
2023-02-12T01:52:52.196Z,5.30
2023-02-12T01:55:20.157Z,5.03
2023-02-12T01:57:48.865Z,5.40
2023-02-12T02:00:24.128Z,5.43
2023-02-12T02:03:00.887Z,4.88
2023-02-12T02:06:04.105Z,4.65
2023-02-12T02:08:31.178Z,4.47
2023-02-12T02:10:57.960Z,4.70
2023-02-12T02:13:44.690Z,4.15
2023-02-12T02:16:25.966Z,4.70
2023-02-12T02:19:12.619Z,4.45
2023-02-12T02:22:02.673Z,4.90
2023-02-12T02:25:13.863Z,4.72
2023-02-12T02:28:30.536Z,4.15
2023-02-12T02:31:09.155Z,4.10
2023-02-12T02:34:04.481Z,4.53
2023-02-12T02:37:02.512Z,4.30
2023-02-12T02:40:33.878Z,4.20
2023-02-12T02:43:11.464Z,4.45
2023-02-12T02:45:43.955Z,4.55
2023-02-12T02:48:21.294Z,4.85
2023-02-12T02:50:56.397Z,5.18
2023-02-12T02:53:40.012Z,5.32
2023-02-12T02:56:14.566Z,5.72
2023-02-12T02:58:51.837Z,6.50
2023-02-12T03:01:36.018Z,7.00
2023-02-12T03:04:08.501Z,6.47
2023-02-12T03:06:59.137Z,7.38
2023-02-12T03:09:41.415Z,7.20
2023-02-12T03:12:18.782Z,5.97
2023-02-12T03:14:54.511Z,7.25
2023-02-12T03:17:29.719Z,6.75
2023-02-12T03:20:05.465Z,7.45
2023-02-12T03:22:37.082Z,7.05
2023-02-12T03:25:15.015Z,6.78
2023-02-12T03:27:49.468Z,7.53
2023-02-12T03:30:16.721Z,6.30
2023-02-12T03:33:09.516Z,8.25
2023-02-12T03:35:51.336Z,8.13
2023-02-12T03:38:31.802Z,7.93
2023-02-12T03:42:10.413Z,8.05
2023-02-12T03:44:53.776Z,6.18
2023-02-12T03:47:28.164Z,6.35
2023-02-12T03:50:32.128Z,5.72
2023-02-12T03:52:58.990Z,6.43
2023-02-12T03:55:26.734Z,6.45
2023-02-12T03:58:01.793Z,6.28
2023-02-12T04:00:28.720Z,6.10
2023-02-12T04:02:55.795Z,6.88
2023-02-12T04:05:28.243Z,7.22
2023-02-12T04:07:57.893Z,6.68
2023-02-12T04:11:31.267Z,7.15
2023-02-12T04:14:13.158Z,7.43
2023-02-12T04:16:51.744Z,7.60
2023-02-12T04:19:32.624Z,6.95
2023-02-12T04:22:19.338Z,5.80
2023-02-12T04:24:55.622Z,5.75
2023-02-12T04:27:26.970Z,6.07
2023-02-12T04:30:21.679Z,6.22
2023-02-12T04:32:55.796Z,6.22
2023-02-12T04:35:34.894Z,5.90
2023-02-12T04:38:12.023Z,5.80
2023-02-12T04:40:41.211Z,5.22
2023-02-12T04:43:08.534Z,6.13
2023-02-12T04:45:37.121Z,6.00
2023-02-12T04:48:05.652Z,6.30
2023-02-12T04:50:42.187Z,5.35
2023-02-12T04:53:10.702Z,5.43
2023-02-12T04:55:37.808Z,4.78
2023-02-12T04:58:06.695Z,6.13
2023-02-12T05:00:34.063Z,6.47
2023-02-12T05:03:01.466Z,5.53
2023-02-12T05:05:28.313Z,4.72
2023-02-12T05:07:55.139Z,4.80
2023-02-12T05:10:22.027Z,4.60
2023-02-12T05:12:48.788Z,4.68
2023-02-12T05:15:15.750Z,4.40
2023-02-12T05:17:42.940Z,4.35
2023-02-12T05:20:11.024Z,4.85
2023-02-12T05:22:37.900Z,3.92
2023-02-12T05:25:05.411Z,4.47
2023-02-12T05:27:32.470Z,4.43
2023-02-12T05:29:59.252Z,4.68
2023-02-12T05:32:26.055Z,4.82
2023-02-12T05:34:52.946Z,4.78
2023-02-12T05:37:19.723Z,4.95
2023-02-12T05:39:50.675Z,4.75
2023-02-12T05:42:17.458Z,4.70
2023-02-12T05:44:44.243Z,5.22
2023-02-12T05:47:11.329Z,4.70
2023-02-12T05:49:38.126Z,4.47
2023-02-12T05:52:05.152Z,5.10
2023-02-12T05:54:32.030Z,5.32
2023-02-12T05:56:58.806Z,5.07
2023-02-12T05:59:25.800Z,4.70
2023-02-12T06:01:53.350Z,5.13
2023-02-12T06:04:24.903Z,5.10
2023-02-12T06:06:53.277Z,5.43
2023-02-12T06:09:20.429Z,4.80
2023-02-12T06:11:47.279Z,4.93
2023-02-12T06:14:18.074Z,5.18
2023-02-12T06:16:47.419Z,5.15
2023-02-12T06:19:15.133Z,4.85
2023-02-12T06:21:46.181Z,5.20
2023-02-12T06:24:14.581Z,5.32
2023-02-12T06:26:41.479Z,5.25
2023-02-12T06:29:08.370Z,5.38
2023-02-12T06:31:37.435Z,5.00
2023-02-12T06:34:07.650Z,5.35
2023-02-12T06:36:35.875Z,5.05
2023-02-12T06:39:03.432Z,5.53
2023-02-12T06:41:30.716Z,5.70
2023-02-12T06:43:57.706Z,5.63
2023-02-12T06:46:24.891Z,5.90
2023-02-12T06:48:57.845Z,5.50
2023-02-12T06:51:25.673Z,5.00
2023-02-12T06:53:54.207Z,5.80
2023-02-12T06:56:23.534Z,5.32
2023-02-12T06:59:01.384Z,5.13
2023-02-12T07:01:30.655Z,5.43
2023-02-12T07:04:03.036Z,5.47
2023-02-12T07:06:35.051Z,5.57
2023-02-12T07:09:04.014Z,5.63
2023-02-12T07:11:37.927Z,5.50
2023-02-12T07:14:06.811Z,5.72
2023-02-12T07:16:34.168Z,4.82
2023-02-12T07:19:01.082Z,5.72
2023-02-12T07:21:27.982Z,5.18
2023-02-12T07:23:54.810Z,6.38
2023-02-12T07:26:22.527Z,6.28
2023-02-12T07:28:50.947Z,6.28
2023-02-12T07:31:23.562Z,7.00
2023-02-12T07:33:55.893Z,6.00
2023-02-12T07:36:23.876Z,5.70
2023-02-12T07:38:51.157Z,5.80
2023-02-12T07:41:25.089Z,7.30
2023-02-12T07:43:58.824Z,6.88
2023-02-12T07:46:33.103Z,5.80
2023-02-12T07:49:05.535Z,6.13
2023-02-12T07:51:34.577Z,6.20
2023-02-12T07:54:02.531Z,5.90
2023-02-12T07:56:33.734Z,6.80
2023-02-12T07:59:06.226Z,5.78
2023-02-12T08:01:40.465Z,5.95
2023-02-12T08:04:11.927Z,3.88
2023-02-12T08:06:45.661Z,4.50
2023-02-12T08:09:18.442Z,5.03
2023-02-12T08:11:46.004Z,5.05
2023-02-12T08:14:16.189Z,5.05
2023-02-12T08:16:45.041Z,5.00
2023-02-12T08:19:19.752Z,5.07
2023-02-12T08:21:51.833Z,5.22
2023-02-12T08:24:19.167Z,5.13
2023-02-12T08:26:46.130Z,5.10
2023-02-12T08:29:20.709Z,5.13
2023-02-12T08:31:50.461Z,5.30
2023-02-12T08:34:24.183Z,5.57
2023-02-12T08:36:54.444Z,6.80
2023-02-12T08:39:22.525Z,6.90
2023-02-12T08:41:50.438Z,6.53
2023-02-12T08:44:17.460Z,6.13
2023-02-12T08:46:48.087Z,5.28
2023-02-12T08:49:27.831Z,5.20
2023-02-12T08:51:57.453Z,5.22
2023-02-12T08:54:27.610Z,5.65
2023-02-12T08:56:59.793Z,5.15
2023-02-12T08:59:27.792Z,5.55
2023-02-12T09:01:55.221Z,5.45
2023-02-12T09:04:25.760Z,5.40
2023-02-12T09:06:53.302Z,5.53
2023-02-12T09:09:20.907Z,5.50
2023-02-12T09:11:48.504Z,5.20
2023-02-12T09:14:18.814Z,6.63
2023-02-12T09:16:46.655Z,6.05
2023-02-12T09:19:15.032Z,6.00
2023-02-12T09:21:42.842Z,6.78
2023-02-12T09:24:10.442Z,6.88
2023-02-12T09:26:37.411Z,7.70
2023-02-12T09:29:05.100Z,7.22
2023-02-12T09:31:33.451Z,7.55
2023-02-12T09:34:04.273Z,7.25
2023-02-12T09:36:32.615Z,7.93
2023-02-12T09:39:00.661Z,7.38
2023-02-12T09:41:33.284Z,8.10
2023-02-12T09:44:11.967Z,8.02
2023-02-12T09:46:56.735Z,7.05
2023-02-12T09:50:06.914Z,6.55
2023-02-12T09:52:35.298Z,6.90
2023-02-12T09:55:02.998Z,7.00
2023-02-12T09:57:38.000Z,6.40
2023-02-12T10:02:43.546Z,5.80
2023-02-12T10:05:26.147Z,5.93
2023-02-12T10:08:35.661Z,6.57
2023-02-12T10:11:20.671Z,5.68
2023-02-12T10:14:17.061Z,5.22
2023-02-12T10:17:02.120Z,5.40
2023-02-12T10:20:16.992Z,4.20
2023-02-12T10:23:02.541Z,4.18
2023-02-12T10:25:44.672Z,3.70
2023-02-12T10:28:26.066Z,3.72
2023-02-12T10:30:59.253Z,3.63
2023-02-12T10:33:41.738Z,3.17
2023-02-12T10:36:35.873Z,3.13
2023-02-12T10:39:31.846Z,3.40
2023-02-12T10:42:12.725Z,4.00
2023-02-12T10:44:39.714Z,3.80
2023-02-12T10:47:08.759Z,3.38
2023-02-12T10:49:35.838Z,3.25
2023-02-12T10:52:13.441Z,3.40
2023-02-12T10:54:46.337Z,3.33
2023-02-12T10:57:26.862Z,3.10
2023-02-12T10:59:57.855Z,3.17
2023-02-12T11:02:34.114Z,3.05
2023-02-12T11:05:24.767Z,2.97
2023-02-12T11:07:52.596Z,3.80
2023-02-12T11:10:39.166Z,3.47
2023-02-12T11:13:07.765Z,5.53
2023-02-12T11:15:53.497Z,5.13
2023-02-12T11:18:33.035Z,4.93
2023-02-12T11:21:08.233Z,3.80
2023-02-12T11:23:44.256Z,3.60
2023-02-12T11:26:20.078Z,3.85
2023-02-12T11:28:56.111Z,3.90
2023-02-12T11:31:35.343Z,4.18
2023-02-12T11:34:19.879Z,4.10
2023-02-12T11:36:51.083Z,4.28
2023-02-12T11:39:27.548Z,3.90
2023-02-12T11:42:02.218Z,4.55
2023-02-12T11:44:38.756Z,4.53
2023-02-12T11:47:17.825Z,4.18
2023-02-12T11:49:56.155Z,3.85
2023-02-12T11:52:30.191Z,4.38
2023-02-12T11:55:07.480Z,4.55
2023-02-12T11:57:43.343Z,4.63
2023-02-12T12:00:19.895Z,4.15
2023-02-12T12:03:02.889Z,3.80
2023-02-12T12:05:37.217Z,4.18
2023-02-12T12:08:16.563Z,4.80
2023-02-12T12:10:59.031Z,4.20
2023-02-12T12:13:35.900Z,4.20
2023-02-12T12:16:50.939Z,4.85
2023-02-12T12:19:53.041Z,4.63
2023-02-12T12:22:38.676Z,5.00
2023-02-12T12:25:27.554Z,7.03
2023-02-12T12:28:33.555Z,6.97
2023-02-12T12:31:20.852Z,5.72
2023-02-12T12:34:17.536Z,6.07
2023-02-12T12:37:18.124Z,5.57
2023-02-12T12:40:07.864Z,6.00
2023-02-12T12:43:14.969Z,5.80
2023-02-12T12:46:05.189Z,5.80
2023-02-12T12:48:53.099Z,5.55
2023-02-12T12:51:54.073Z,5.57
2023-02-12T12:55:07.598Z,5.30
2023-02-12T12:57:52.814Z,5.30
2023-02-12T13:00:28.886Z,6.05
2023-02-12T13:03:16.958Z,5.80
2023-02-12T13:06:09.122Z,5.57
2023-02-12T13:09:00.181Z,6.75
2023-02-12T13:12:08.951Z,5.88
2023-02-12T13:14:49.052Z,6.22
2023-02-12T13:17:26.362Z,6.35
2023-02-12T13:20:15.462Z,6.90
2023-02-12T13:22:53.754Z,7.18
2023-02-12T13:25:48.327Z,6.80
2023-02-12T13:28:28.078Z,6.45
2023-02-12T13:30:56.784Z,7.10
2023-02-12T13:33:29.603Z,7.47
2023-02-12T13:36:00.954Z,7.85
2023-02-12T13:38:38.699Z,8.07
2023-02-12T13:41:10.120Z,8.23
2023-02-12T13:44:13.197Z,7.88
2023-02-12T13:46:56.117Z,8.27
2023-02-12T13:49:49.875Z,7.97
2023-02-12T13:52:37.166Z,8.73
2023-02-12T13:55:15.381Z,9.32
2023-02-12T13:57:42.189Z,9.98
2023-02-12T14:00:50.204Z,8.93
2023-02-12T14:03:17.003Z,9.85
2023-02-12T14:05:43.953Z,10.60
2023-02-12T14:08:38.310Z,9.88
2023-02-12T14:11:26.383Z,10.52
2023-02-12T14:14:02.292Z,9.75
2023-02-12T14:16:29.030Z,10.25
2023-02-12T14:19:39.422Z,9.40
2023-02-12T14:22:32.322Z,9.35
2023-02-12T14:25:25.609Z,8.65
2023-02-12T14:27:56.024Z,9.35
2023-02-12T14:30:40.175Z,9.07
2023-02-12T14:33:07.521Z,9.68
2023-02-12T14:35:41.032Z,9.10
2023-02-12T14:38:16.721Z,9.68
2023-02-12T14:40:47.284Z,9.68
2023-02-12T14:43:56.742Z,9.13
2023-02-12T14:46:23.705Z,9.57
2023-02-12T14:48:56.721Z,8.43
2023-02-12T14:51:43.803Z,9.48
2023-02-12T14:54:31.546Z,9.35
2023-02-12T14:57:05.015Z,10.13
2023-02-12T14:59:39.555Z,10.35
2023-02-12T15:02:13.232Z,9.73
2023-02-12T15:04:45.501Z,10.82
2023-02-12T15:07:30.315Z,10.98
2023-02-12T15:10:10.912Z,13.23
2023-02-12T15:12:45.954Z,13.93
2023-02-12T15:18:31.044Z,17.80
2023-02-12T15:21:27.856Z,20.67
2023-02-12T15:24:11.928Z,19.90
2023-02-12T15:26:52.014Z,20.27
2023-02-12T15:29:30.917Z,20.65
2023-02-12T15:32:02.117Z,22.67
2023-02-12T15:34:34.185Z,23.50
2023-02-12T15:37:04.191Z,23.02
2023-02-12T15:39:52.670Z,24.70
2023-02-12T15:42:39.644Z,23.70
2023-02-12T15:45:19.125Z,22.63
2023-02-12T15:48:16.213Z,23.48
2023-02-12T15:51:00.647Z,24.33
2023-02-12T15:53:32.286Z,23.58
2023-02-12T15:56:01.156Z,23.38
2023-02-12T15:58:51.137Z,23.48
2023-02-12T16:01:22.922Z,25.15
2023-02-12T16:04:00.109Z,23.42
2023-02-12T16:06:32.507Z,25.42
2023-02-12T16:09:14.458Z,24.95
2023-02-12T16:11:44.872Z,24.08
2023-02-12T16:14:46.590Z,24.50
2023-02-12T16:17:29.807Z,25.63
2023-02-12T16:20:19.151Z,24.02
2023-02-12T16:22:49.452Z,24.30
2023-02-12T16:25:32.710Z,24.50
2023-02-12T16:28:18.478Z,23.63
2023-02-12T16:30:48.617Z,24.67
2023-02-12T16:33:36.354Z,23.20
2023-02-12T16:36:08.260Z,25.33
2023-02-12T16:38:48.341Z,25.35
2023-02-12T16:41:30.821Z,26.02
2023-02-12T16:44:01.079Z,26.70
2023-02-12T16:46:31.672Z,24.65
2023-02-12T16:49:00.900Z,23.50
2023-02-12T16:51:35.462Z,21.75
2023-02-12T16:54:05.092Z,21.52
2023-02-12T16:56:38.811Z,23.65
2023-02-12T16:59:05.844Z,24.88
2023-02-12T17:01:36.438Z,21.77
2023-02-12T17:04:09.259Z,21.17
2023-02-12T17:06:36.366Z,19.90
2023-02-12T17:09:03.237Z,19.38
2023-02-12T17:11:30.128Z,18.70
2023-02-12T17:13:57.293Z,19.63
2023-02-12T17:16:30.801Z,18.10
2023-02-12T17:18:59.843Z,14.43
2023-02-12T17:21:38.287Z,16.30
2023-02-12T17:24:22.782Z,15.45
2023-02-12T17:26:51.405Z,15.77
2023-02-12T17:29:20.483Z,15.68
2023-02-12T17:31:48.324Z,15.05
2023-02-12T17:34:16.961Z,15.27
2023-02-12T17:36:43.823Z,16.33
2023-02-12T17:39:14.292Z,15.13
2023-02-12T17:41:41.328Z,15.73
2023-02-12T17:44:08.542Z,14.60
2023-02-12T17:46:35.440Z,15.52
2023-02-12T17:49:02.681Z,17.35
2023-02-12T17:51:29.572Z,17.02
2023-02-12T17:53:56.390Z,15.98
2023-02-12T17:56:26.121Z,16.67
2023-02-12T17:58:53.479Z,17.20
2023-02-12T18:01:23.050Z,14.85
2023-02-12T18:03:53.711Z,16.23
2023-02-12T18:06:30.054Z,15.60
2023-02-12T18:08:59.116Z,16.13
2023-02-12T18:11:26.252Z,15.82
2023-02-12T18:13:55.958Z,16.77
2023-02-12T18:16:25.244Z,16.05
2023-02-12T18:18:52.129Z,16.73
2023-02-12T18:21:19.220Z,16.65
2023-02-12T18:23:46.281Z,15.02
2023-02-12T18:26:17.615Z,15.50
2023-02-12T18:28:45.721Z,17.25
2023-02-12T18:31:13.357Z,16.27
2023-02-12T18:33:40.788Z,18.27
2023-02-12T18:36:18.424Z,16.83
2023-02-12T18:38:48.438Z,16.63
2023-02-12T18:41:20.242Z,15.00
2023-02-12T18:43:47.529Z,15.82
2023-02-12T18:46:17.752Z,16.13
2023-02-12T18:48:45.046Z,15.50
2023-02-12T18:51:18.614Z,15.68
2023-02-12T18:53:46.775Z,17.08
2023-02-12T18:56:13.688Z,17.50
2023-02-12T18:58:40.939Z,16.70
2023-02-12T19:01:20.181Z,16.45
2023-02-12T19:03:48.970Z,16.05
2023-02-12T19:06:16.376Z,16.35
2023-02-12T19:08:43.191Z,15.82
2023-02-12T19:11:12.405Z,16.52
2023-02-12T19:13:40.896Z,15.98
2023-02-12T19:16:19.101Z,16.13
2023-02-12T19:18:54.833Z,15.48
2023-02-12T19:21:26.402Z,15.00
2023-02-12T19:23:59.920Z,15.77
2023-02-12T19:26:29.675Z,15.80
2023-02-12T19:28:58.227Z,15.65
2023-02-12T19:31:35.432Z,15.65
2023-02-12T19:34:06.655Z,14.77
2023-02-12T19:36:36.142Z,13.95
2023-02-12T19:39:06.113Z,15.07
2023-02-12T19:41:41.240Z,14.45
2023-02-12T19:44:19.084Z,13.98
2023-02-12T19:46:47.841Z,13.98
2023-02-12T19:49:19.480Z,14.40
2023-02-12T19:51:46.526Z,14.82
2023-02-12T19:54:15.414Z,15.57
2023-02-12T19:56:44.128Z,15.88
2023-02-12T19:59:15.363Z,15.55
2023-02-12T20:01:42.228Z,17.20
2023-02-12T20:04:12.422Z,16.52
2023-02-12T20:06:40.636Z,16.63
2023-02-12T20:09:08.620Z,15.27
2023-02-12T20:11:39.803Z,16.42
2023-02-12T20:14:10.379Z,15.43
2023-02-12T20:16:41.686Z,15.43
2023-02-12T20:19:20.563Z,17.13
2023-02-12T20:21:53.321Z,17.25
2023-02-12T20:24:31.662Z,17.40
2023-02-12T20:27:01.089Z,17.55
2023-02-12T20:29:28.918Z,18.50
2023-02-12T20:31:56.542Z,18.50
2023-02-12T20:34:23.455Z,18.30
2023-02-12T20:36:50.356Z,17.58
2023-02-12T20:39:20.665Z,18.10
2023-02-12T20:41:48.122Z,17.65
2023-02-12T20:44:20.232Z,16.73
2023-02-12T20:46:55.918Z,16.65
2023-02-12T20:49:24.549Z,17.50
2023-02-12T20:51:51.501Z,16.27
2023-02-12T20:54:18.585Z,15.93
2023-02-12T20:56:45.780Z,16.55
2023-02-12T20:59:12.795Z,16.05
2023-02-12T21:01:41.702Z,15.32
2023-02-12T21:04:12.811Z,14.30
2023-02-12T21:06:40.532Z,15.68
2023-02-12T21:09:13.493Z,14.00
2023-02-12T21:11:42.801Z,13.95
2023-02-12T21:14:26.013Z,14.48
2023-02-12T21:16:55.454Z,13.80
2023-02-12T21:19:22.866Z,14.35
2023-02-12T21:21:49.934Z,13.63
2023-02-12T21:24:21.856Z,13.18
2023-02-12T21:26:50.059Z,14.43
2023-02-12T21:29:17.234Z,13.48
2023-02-12T21:31:47.138Z,13.63
2023-02-12T21:34:20.610Z,13.55
2023-02-12T21:36:49.425Z,13.63
2023-02-12T21:39:27.406Z,14.20
2023-02-12T21:41:58.673Z,12.95
2023-02-12T21:44:26.458Z,13.00
2023-02-12T21:46:53.861Z,14.05
2023-02-12T21:49:28.542Z,13.93
2023-02-12T21:51:59.840Z,13.85
2023-02-12T21:54:27.103Z,13.30
2023-02-12T21:56:54.549Z,13.48
2023-02-12T21:59:21.969Z,13.60
2023-02-12T22:01:52.172Z,13.35
2023-02-12T22:04:20.089Z,13.00
2023-02-12T22:06:50.928Z,13.52
2023-02-12T22:09:21.810Z,12.43
2023-02-12T22:11:49.121Z,12.90
2023-02-12T22:14:17.968Z,12.85
2023-02-12T22:16:45.646Z,12.65
2023-02-12T22:19:12.631Z,13.07
2023-02-12T22:21:41.748Z,13.77
2023-02-12T22:24:12.158Z,13.35
2023-02-12T22:26:39.070Z,13.15
2023-02-12T22:29:08.937Z,11.98
2023-02-12T22:31:38.345Z,12.27
2023-02-12T22:34:10.632Z,11.82
2023-02-12T22:36:38.978Z,11.55
2023-02-12T22:39:06.177Z,11.45
2023-02-12T22:41:34.048Z,10.60
2023-02-12T22:44:02.746Z,9.95
2023-02-12T22:46:29.721Z,10.02
2023-02-12T22:48:56.697Z,9.70
2023-02-12T22:51:30.991Z,9.60
2023-02-12T22:53:58.942Z,9.88
2023-02-12T22:56:26.603Z,9.68
2023-02-12T22:59:00.167Z,8.82
2023-02-12T23:01:29.055Z,8.40
2023-02-12T23:03:56.563Z,8.60
2023-02-12T23:06:28.247Z,7.53
2023-02-12T23:08:59.734Z,8.20
2023-02-12T23:11:29.266Z,7.65
2023-02-12T23:13:57.108Z,7.35
2023-02-12T23:16:24.456Z,7.22
2023-02-12T23:19:02.677Z,7.18
2023-02-12T23:21:31.194Z,7.28
2023-02-12T23:24:01.833Z,7.20
2023-02-12T23:26:29.704Z,7.20
2023-02-12T23:28:57.634Z,6.72
2023-02-12T23:31:25.486Z,6.82
2023-02-12T23:33:52.362Z,6.50
2023-02-12T23:36:19.160Z,6.40
2023-02-12T23:38:46.026Z,6.32
2023-02-12T23:41:12.847Z,6.43
2023-02-12T23:43:39.627Z,6.95
2023-02-12T23:46:06.924Z,6.65
2023-02-12T23:48:33.800Z,6.47
2023-02-12T23:51:04.120Z,6.28
2023-02-12T23:53:30.910Z,6.15
2023-02-12T23:55:57.961Z,6.18
2023-02-12T23:58:24.811Z,6.30
